createdAt,value
2018-11-21T00:00:27.241Z,-1.50
2018-11-21T00:02:59.221Z,-1.40
2018-11-21T00:05:29.184Z,-1.40
2018-11-21T00:07:59.040Z,-1.40
2018-11-21T00:10:34.068Z,-1.40
2018-11-21T00:13:05.641Z,-1.30
2018-11-21T00:15:36.612Z,0.40
2018-11-21T00:23:13.924Z,-0.90
2018-11-21T00:25:47.976Z,-0.90
2018-11-21T00:28:19.221Z,-1.00
2018-11-21T00:30:49.076Z,-1.00
2018-11-21T00:35:51.176Z,-1.10
2018-11-21T00:38:23.084Z,-1.10
2018-11-21T00:40:53.024Z,-1.20
2018-11-21T00:48:29.804Z,-1.10
2018-11-21T01:08:48.938Z,-1.30
2018-11-21T01:13:48.789Z,-1.40
2018-11-21T01:16:21.856Z,-1.30
2018-11-21T01:23:59.536Z,-1.10
2018-11-21T01:28:59.086Z,-1.00
2018-11-21T01:33:59.000Z,-0.80
2018-11-21T01:36:29.025Z,-0.60
2018-11-21T01:41:29.430Z,-0.40
2018-11-21T01:43:59.284Z,-0.40
2018-11-21T01:46:30.061Z,-0.30
2018-11-21T01:59:01.532Z,-0.20
2018-11-21T02:01:32.528Z,-0.10
2018-11-21T02:04:05.988Z,-0.10
2018-11-21T02:06:36.416Z,-0.10
2018-11-21T02:14:09.216Z,0.00
2018-11-21T02:16:40.061Z,0.10
2018-11-21T02:21:44.735Z,0.10
2018-11-21T02:41:45.218Z,0.30
2018-11-21T02:46:45.563Z,0.30
2018-11-21T02:51:47.621Z,0.40
2018-11-21T02:54:17.568Z,0.40
2018-11-21T03:00:18.792Z,0.40
2018-11-21T03:02:51.682Z,0.40
2018-11-21T03:05:23.536Z,0.40
2018-11-21T03:07:58.346Z,0.50
2018-11-21T03:12:59.120Z,0.50
2018-11-21T03:20:28.445Z,0.50
2018-11-21T03:23:00.334Z,0.40
2018-11-21T03:25:30.550Z,0.40
2018-11-21T03:30:36.574Z,0.40
2018-11-21T03:35:51.237Z,0.50
2018-11-21T03:40:51.137Z,0.40
2018-11-21T03:43:21.265Z,0.40
2018-11-21T03:45:51.200Z,0.50
2018-11-21T03:48:21.134Z,0.50
2018-11-21T03:50:51.051Z,0.50
2018-11-21T03:58:24.612Z,0.50
2018-11-21T04:00:57.521Z,0.50
2018-11-21T04:08:28.417Z,0.60
2018-11-21T04:13:28.107Z,0.60
2018-11-21T04:16:03.186Z,0.60
2018-11-21T04:23:35.469Z,0.60
2018-11-21T04:28:35.123Z,0.60
2018-11-21T04:31:06.054Z,0.60
2018-11-21T04:36:07.438Z,0.60
2018-11-21T04:38:37.349Z,0.60
2018-11-21T04:43:38.476Z,0.60
2018-11-21T04:48:41.886Z,0.60
2018-11-21T04:51:12.281Z,0.60
2018-11-21T04:53:42.991Z,0.60
2018-11-21T04:56:14.890Z,0.60
2018-11-21T04:58:47.018Z,0.70
2018-11-21T05:01:16.870Z,0.70
2018-11-21T05:18:50.288Z,0.70
2018-11-21T05:21:20.060Z,0.70
2018-11-21T05:23:49.914Z,0.70
2018-11-21T05:26:20.014Z,0.70
2018-11-21T05:31:20.080Z,0.80
2018-11-21T05:33:55.217Z,0.70
2018-11-21T05:39:02.525Z,0.80
2018-11-21T05:41:39.957Z,0.80
2018-11-21T05:44:09.792Z,0.80
2018-11-21T05:46:41.091Z,0.80
2018-11-21T05:49:11.082Z,0.80
2018-11-21T05:51:44.193Z,0.80
2018-11-21T05:56:44.481Z,0.90
2018-11-21T06:01:45.061Z,0.90
2018-11-21T06:04:15.921Z,0.90
2018-11-21T06:06:46.146Z,0.80
2018-11-21T06:09:16.101Z,0.90
2018-11-21T06:11:49.877Z,0.80
2018-11-21T06:14:20.114Z,0.70
2018-11-21T06:19:19.617Z,0.70
2018-11-21T06:21:50.079Z,0.70
2018-11-21T06:26:58.434Z,0.80
2018-11-21T06:29:28.365Z,0.80
2018-11-21T06:31:58.426Z,0.80
2018-11-21T06:34:32.783Z,0.80
2018-11-21T06:37:06.689Z,0.80
2018-11-21T06:39:36.505Z,0.90
2018-11-21T06:42:06.648Z,0.90
2018-11-21T06:44:36.416Z,0.90
2018-11-21T06:47:06.517Z,0.90
2018-11-21T06:49:36.562Z,0.90
2018-11-21T06:52:06.458Z,0.90
2018-11-21T06:54:40.112Z,0.90
2018-11-21T06:57:10.277Z,0.90
2018-11-21T06:59:46.397Z,1.00
2018-11-21T07:04:48.308Z,1.00
2018-11-21T07:07:19.193Z,1.10
2018-11-21T07:09:49.070Z,1.10
2018-11-21T07:12:21.945Z,1.10
2018-11-21T07:14:54.592Z,1.20
2018-11-21T07:17:34.109Z,1.20
2018-11-21T07:20:04.453Z,1.30
2018-11-21T07:22:34.592Z,1.20
2018-11-21T07:25:24.229Z,1.30
2018-11-21T07:27:54.102Z,1.30
2018-11-21T07:30:23.942Z,1.40
2018-11-21T07:32:53.806Z,1.40
2018-11-21T07:35:26.750Z,1.50
2018-11-21T07:37:59.399Z,1.50
2018-11-21T07:40:35.635Z,1.50
2018-11-21T07:43:05.926Z,1.50
2018-11-21T07:45:35.961Z,1.60
2018-11-21T07:48:12.117Z,1.50
2018-11-21T07:50:43.265Z,1.60
2018-11-21T07:58:21.045Z,1.70
2018-11-21T08:01:10.970Z,1.70
2018-11-21T08:03:49.831Z,1.80
2018-11-21T08:12:10.042Z,1.70
2018-11-21T08:23:31.625Z,1.70
2018-11-21T08:26:25.726Z,1.80
2018-11-21T08:28:55.584Z,1.90
2018-11-21T08:33:58.070Z,1.90
2018-11-21T08:38:57.490Z,2.00
2018-11-21T08:41:27.414Z,2.00
2018-11-21T08:44:07.211Z,2.10
2018-11-21T08:46:40.181Z,2.20
2018-11-21T08:49:12.018Z,2.20
2018-11-21T08:51:48.393Z,2.20
2018-11-21T08:54:18.517Z,2.20
2018-11-21T09:01:47.503Z,2.40
2018-11-21T09:04:17.376Z,2.40
2018-11-21T09:11:52.005Z,2.60
2018-11-21T09:16:55.002Z,2.70
2018-11-21T09:21:57.521Z,2.70
2018-11-21T09:27:12.258Z,2.70
2018-11-21T09:29:42.114Z,2.80
2018-11-21T09:34:41.439Z,2.80
2018-11-21T09:37:11.570Z,2.70
2018-11-21T09:39:42.053Z,2.60
2018-11-21T09:44:42.682Z,2.50
2018-11-21T09:49:42.101Z,2.50
2018-11-21T09:54:41.470Z,2.60
2018-11-21T09:57:11.636Z,2.70
2018-11-21T09:59:41.725Z,2.80
2018-11-21T10:05:18.875Z,3.00
2018-11-21T10:10:40.209Z,3.00
2018-11-21T10:13:12.683Z,3.10
2018-11-21T10:15:43.570Z,3.20
2018-11-21T10:20:52.157Z,3.20
2018-11-21T10:23:25.122Z,3.30
2018-11-21T10:28:37.766Z,3.40
2018-11-21T10:31:08.623Z,3.60
2018-11-21T10:36:17.469Z,3.60
2018-11-21T10:38:47.261Z,3.70
2018-11-21T10:43:57.170Z,3.70
2018-11-21T10:46:27.021Z,3.70
2018-11-21T10:48:57.337Z,3.60
2018-11-21T10:51:28.217Z,3.70
2018-11-21T10:53:58.271Z,3.70
2018-11-21T10:56:37.601Z,3.70
2018-11-21T11:01:54.449Z,3.80
2018-11-21T11:05:03.910Z,3.90
2018-11-21T11:07:56.839Z,3.90
2018-11-21T11:13:45.698Z,3.90
2018-11-21T11:16:48.862Z,4.00
2018-11-21T11:19:49.981Z,4.00
2018-11-21T11:22:34.619Z,3.90
2018-11-21T11:25:37.109Z,3.90
2018-11-21T11:28:24.773Z,4.10
2018-11-21T11:31:22.653Z,4.00
2018-11-21T11:34:17.760Z,4.00
2018-11-21T11:39:56.245Z,4.00
2018-11-21T11:42:50.250Z,4.00
2018-11-21T11:45:47.824Z,3.90
2018-11-21T11:48:48.885Z,3.90
2018-11-21T11:51:41.726Z,3.80
2018-11-21T11:57:17.636Z,3.80
2018-11-21T12:00:05.385Z,3.80
2018-11-21T12:03:01.839Z,3.90
2018-11-21T12:05:58.286Z,3.90
2018-11-21T12:08:55.845Z,3.90
2018-11-21T12:12:04.752Z,4.00
2018-11-21T12:15:04.053Z,4.10
2018-11-21T12:17:57.117Z,4.30
2018-11-21T12:21:14.524Z,4.30
2018-11-21T12:26:54.449Z,3.90
2018-11-21T12:29:42.194Z,3.70
2018-11-21T12:35:31.885Z,3.60
2018-11-21T12:38:19.640Z,3.70
2018-11-21T12:40:59.404Z,3.80
2018-11-21T12:43:50.909Z,3.80
2018-11-21T12:46:37.237Z,3.90
2018-11-21T12:49:35.153Z,3.90
2018-11-21T12:52:42.569Z,3.80
2018-11-21T12:58:24.684Z,3.70
2018-11-21T13:01:19.658Z,3.60
2018-11-21T13:09:43.359Z,3.80
2018-11-21T13:15:29.645Z,3.70
2018-11-21T13:18:23.765Z,3.70
2018-11-21T13:27:26.241Z,3.60
2018-11-21T13:30:27.123Z,3.60
2018-11-21T13:36:29.870Z,3.50
2018-11-21T13:39:32.150Z,3.40
2018-11-21T13:42:30.496Z,3.30
2018-11-21T13:45:16.634Z,3.30
2018-11-21T13:48:17.833Z,3.30
2018-11-21T13:51:05.658Z,3.20
2018-11-21T13:53:59.545Z,3.20
2018-11-21T13:56:29.741Z,3.10
2018-11-21T13:58:59.963Z,3.10
2018-11-21T14:01:30.434Z,3.10
2018-11-21T14:06:30.145Z,3.10
2018-11-21T14:11:30.646Z,3.00
2018-11-21T14:14:01.370Z,3.00
2018-11-21T14:16:30.482Z,3.10
2018-11-21T14:19:03.483Z,3.10
2018-11-21T14:21:36.929Z,3.10
2018-11-21T14:31:40.703Z,3.10
2018-11-21T14:36:45.153Z,3.10
2018-11-21T14:39:22.397Z,3.20
2018-11-21T14:41:56.389Z,3.20
2018-11-21T14:44:26.618Z,3.20
2018-11-21T14:46:58.378Z,3.10
2018-11-21T14:49:28.245Z,3.00
2018-11-21T14:51:58.145Z,3.00
2018-11-21T14:54:28.022Z,3.00
2018-11-21T14:56:59.974Z,2.90
2018-11-21T15:02:23.961Z,2.90
2018-11-21T15:07:28.366Z,2.80
2018-11-21T15:10:02.310Z,2.80
2018-11-21T15:12:41.502Z,2.80
2018-11-21T15:17:44.485Z,2.70
2018-11-21T15:20:15.961Z,2.70
2018-11-21T15:22:45.850Z,2.80
2018-11-21T15:25:17.604Z,2.80
2018-11-21T15:27:54.225Z,2.80
2018-11-21T15:30:25.779Z,2.70
2018-11-21T15:35:32.054Z,2.70
2018-11-21T15:38:03.729Z,2.70
2018-11-21T15:40:35.578Z,2.80
2018-11-21T15:43:05.478Z,2.70
2018-11-21T15:45:35.781Z,2.80
2018-11-21T15:48:06.034Z,2.80
2018-11-21T15:50:36.122Z,2.80
2018-11-21T15:53:09.098Z,2.80
2018-11-21T16:00:38.934Z,2.90
2018-11-21T16:03:10.714Z,2.90
2018-11-21T16:10:46.333Z,3.00
2018-11-21T16:15:51.317Z,3.10
2018-11-21T16:23:22.991Z,3.20
2018-11-21T16:25:52.935Z,3.20
2018-11-21T16:28:22.886Z,3.30
2018-11-21T16:30:58.946Z,3.30
2018-11-21T16:33:28.859Z,3.30
2018-11-21T16:36:01.690Z,3.30
2018-11-21T16:38:37.758Z,3.30
2018-11-21T16:41:07.726Z,3.40
2018-11-21T16:43:40.653Z,3.30
2018-11-21T16:48:40.250Z,3.40
2018-11-21T16:53:44.329Z,3.20
2018-11-21T16:56:14.239Z,3.10
2018-11-21T16:58:44.236Z,3.10
2018-11-21T17:03:45.844Z,2.80
2018-11-21T17:08:50.320Z,2.80
2018-11-21T17:11:20.462Z,2.80
2018-11-21T17:13:50.339Z,2.90
2018-11-21T17:16:20.639Z,2.80
2018-11-21T17:18:54.748Z,2.90
2018-11-21T17:21:24.617Z,2.90
2018-11-21T17:26:24.907Z,2.90
2018-11-21T17:28:54.718Z,2.90
2018-11-21T17:31:24.579Z,2.90
2018-11-21T17:33:55.446Z,2.90
2018-11-21T17:36:25.375Z,2.80
2018-11-21T17:56:31.282Z,2.40
2018-11-21T17:59:01.202Z,2.40
2018-11-21T18:01:32.150Z,2.30
2018-11-21T18:04:06.518Z,2.30
2018-11-21T18:06:37.458Z,2.30
2018-11-21T18:11:40.726Z,2.30
2018-11-21T18:21:40.621Z,2.30
2018-11-21T18:26:45.086Z,2.20
2018-11-21T18:34:16.070Z,2.30
2018-11-21T18:36:49.394Z,2.40
2018-11-21T18:39:22.518Z,2.40
2018-11-21T18:41:57.989Z,2.50
2018-11-21T18:49:26.190Z,2.50
2018-11-21T18:51:56.262Z,2.50
2018-11-21T18:57:45.382Z,2.60
2018-11-21T19:00:25.640Z,2.60
2018-11-21T19:02:55.514Z,2.60
2018-11-21T19:05:25.334Z,2.50
2018-11-21T19:07:55.478Z,2.60
2018-11-21T19:15:31.895Z,2.60
2018-11-21T19:18:04.895Z,2.70
2018-11-21T19:20:34.746Z,2.60
2018-11-21T19:23:05.870Z,2.60
2018-11-21T19:25:36.326Z,2.70
2018-11-21T19:30:35.967Z,2.70
2018-11-21T19:33:06.112Z,2.70
2018-11-21T19:35:36.090Z,2.70
2018-11-21T19:38:06.958Z,2.70
2018-11-21T19:40:37.886Z,2.70
2018-11-21T19:43:08.682Z,2.70
2018-11-21T19:45:38.574Z,2.70
2018-11-21T19:48:10.939Z,2.70
2018-11-21T19:50:40.906Z,2.70
2018-11-21T19:55:47.718Z,2.70
2018-11-21T19:58:17.534Z,2.70
2018-11-21T20:00:47.718Z,2.70
2018-11-21T20:03:17.637Z,2.60
2018-11-21T20:05:54.533Z,2.60
2018-11-21T20:08:26.563Z,2.60
2018-11-21T20:15:56.068Z,2.60
2018-11-21T20:18:26.126Z,2.60
2018-11-21T20:20:56.071Z,2.60
2018-11-21T20:23:26.038Z,2.60
2018-11-21T20:25:55.871Z,2.60
2018-11-21T20:28:26.270Z,2.50
2018-11-21T20:30:56.111Z,2.40
2018-11-21T20:33:26.062Z,2.30
2018-11-21T20:35:56.484Z,2.40
2018-11-21T20:40:58.246Z,2.40
2018-11-21T20:45:59.028Z,2.40
2018-11-21T20:51:01.666Z,2.40
2018-11-21T20:53:32.223Z,2.40
2018-11-21T20:56:02.414Z,2.40
2018-11-21T21:01:06.690Z,2.40
2018-11-21T21:08:39.058Z,2.40
2018-11-21T21:16:23.804Z,2.50
2018-11-21T21:18:54.011Z,2.40
2018-11-21T21:21:30.026Z,2.40
2018-11-21T21:24:00.951Z,2.80
2018-11-21T21:26:30.970Z,2.30
2018-11-21T21:29:01.098Z,2.20
2018-11-21T21:31:34.222Z,2.20
2018-11-21T21:34:09.182Z,2.20
2018-11-21T21:36:42.666Z,2.20
2018-11-21T21:39:15.591Z,2.30
2018-11-21T21:41:46.139Z,2.30
2018-11-21T21:44:16.287Z,2.30
2018-11-21T21:46:46.122Z,2.30
2018-11-21T21:49:16.290Z,2.30
2018-11-21T21:51:47.611Z,2.30
2018-11-21T21:54:17.782Z,2.30
2018-11-21T21:56:47.915Z,2.30
2018-11-21T21:59:21.782Z,2.30
2018-11-21T22:01:53.010Z,2.30
2018-11-21T22:04:23.139Z,2.30
2018-11-21T22:06:53.094Z,2.30
2018-11-21T22:09:23.070Z,2.30
2018-11-21T22:11:53.258Z,2.30
2018-11-21T22:14:23.231Z,2.30
2018-11-21T22:16:53.347Z,2.30
2018-11-21T22:19:24.859Z,2.30
2018-11-21T22:22:14.818Z,2.40
2018-11-21T22:27:14.438Z,2.30
2018-11-21T22:29:44.814Z,2.30
2018-11-21T22:32:14.778Z,2.20
2018-11-21T22:34:45.083Z,2.20
2018-11-21T22:37:14.978Z,2.10
2018-11-21T22:39:44.879Z,2.10
2018-11-21T22:57:17.128Z,2.00
2018-11-21T22:59:48.165Z,2.00
2018-11-21T23:02:18.067Z,2.00
2018-11-21T23:09:48.668Z,2.00
2018-11-21T23:12:18.462Z,2.00
2018-11-21T23:14:48.367Z,2.00
2018-11-21T23:19:50.129Z,2.10
2018-11-21T23:24:54.163Z,2.20
2018-11-21T23:27:24.071Z,2.20
2018-11-21T23:29:54.096Z,2.20
2018-11-21T23:32:26.250Z,2.20
2018-11-21T23:34:57.571Z,2.20
2018-11-21T23:37:37.683Z,2.20
2018-11-21T23:40:12.235Z,2.20
2018-11-21T23:42:43.245Z,2.20
2018-11-21T23:45:15.071Z,2.20
2018-11-21T23:50:17.948Z,2.30
2018-11-21T23:55:22.256Z,2.30
2018-11-21T23:57:53.681Z,2.40
